createdAt,value
2019-06-07T00:02:50.071Z,94951.16
2019-06-07T00:05:57.512Z,94949.05
2019-06-07T00:09:08.082Z,94950.38
2019-06-07T00:12:17.608Z,94942.88
2019-06-07T00:15:28.612Z,94940.39
2019-06-07T00:18:34.277Z,94942.06
2019-06-07T00:22:13.603Z,94943.33
2019-06-07T00:24:50.949Z,94936.73
2019-06-07T00:27:58.746Z,94925.22
2019-06-07T00:31:06.563Z,94917.52
2019-06-07T00:34:14.546Z,94924.22
2019-06-07T00:37:25.514Z,94916.06
2019-06-07T00:40:33.046Z,94899.95
2019-06-07T00:43:40.887Z,94899.30
2019-06-07T00:46:49.452Z,94902.54
2019-06-07T00:49:57.156Z,94899.63
2019-06-07T00:53:15.487Z,94897.55
2019-06-07T00:56:16.314Z,94890.98
2019-06-07T00:59:28.832Z,94889.87
2019-06-07T01:02:33.370Z,94885.86
2019-06-07T01:05:40.751Z,94873.26
2019-06-07T01:08:50.519Z,94869.31
2019-06-07T01:11:58.636Z,94870.84
2019-06-07T01:15:07.782Z,94859.94
2019-06-07T01:21:29.609Z,94849.42
2019-06-07T01:24:34.360Z,94836.30
2019-06-07T01:27:42.469Z,94836.95
2019-06-07T01:30:51.593Z,94830.61
2019-06-07T01:33:58.949Z,94825.34
2019-06-07T01:37:06.495Z,94823.70
2019-06-07T01:40:17.000Z,94823.31
2019-06-07T01:43:28.176Z,94822.11
2019-06-07T01:46:35.638Z,94827.11
2019-06-07T01:49:42.977Z,94823.55
2019-06-07T01:52:50.169Z,94827.33
2019-06-07T01:55:58.030Z,94818.70
2019-06-07T01:59:06.245Z,94807.53
2019-06-07T02:02:14.043Z,94809.87
2019-06-07T02:05:23.335Z,94806.45
2019-06-07T02:08:34.186Z,94805.67
2019-06-07T02:11:40.224Z,94797.03
2019-06-07T02:14:47.732Z,94795.59
2019-06-07T02:17:55.824Z,94798.46
2019-06-07T02:21:03.624Z,94796.58
2019-06-07T02:24:10.869Z,94791.73
2019-06-07T02:27:18.265Z,94788.61
2019-06-07T02:30:51.053Z,94784.88
2019-06-07T02:33:40.293Z,94794.51
2019-06-07T02:36:44.521Z,94786.63
2019-06-07T02:39:51.690Z,94793.84
2019-06-07T02:42:59.268Z,94786.11
2019-06-07T02:46:28.189Z,94778.79
2019-06-07T02:49:26.782Z,94784.66
2019-06-07T02:52:36.749Z,94793.82
2019-06-07T02:56:33.078Z,94785.98
2019-06-07T02:58:51.136Z,94782.66
2019-06-07T03:01:58.613Z,94790.86
2019-06-07T03:05:06.419Z,94792.05
2019-06-07T03:08:15.926Z,94786.88
2019-06-07T03:11:25.801Z,94782.88
2019-06-07T03:14:35.746Z,94784.53
2019-06-07T03:18:10.769Z,94781.35
2019-06-07T03:21:21.661Z,94777.12
2019-06-07T03:24:33.162Z,94781.80
2019-06-07T03:27:49.582Z,94772.91
2019-06-07T03:31:01.470Z,94784.41
2019-06-07T03:34:00.864Z,94784.17
2019-06-07T03:37:08.243Z,94779.54
2019-06-07T03:40:16.055Z,94784.76
2019-06-07T03:43:24.496Z,94792.72
2019-06-07T03:46:36.233Z,94792.30
2019-06-07T03:49:42.603Z,94789.41
2019-06-07T03:52:50.473Z,94785.54
2019-06-07T03:55:58.329Z,94791.39
2019-06-07T03:59:05.716Z,94791.62
2019-06-07T04:02:13.442Z,94790.09
2019-06-07T04:05:20.961Z,94802.80
2019-06-07T04:08:28.321Z,94802.00
2019-06-07T04:11:40.394Z,94806.19
2019-06-07T04:14:45.899Z,94814.15
2019-06-07T04:18:01.941Z,94813.05
2019-06-07T04:21:03.093Z,94812.58
2019-06-07T04:24:10.430Z,94809.79
2019-06-07T04:27:18.024Z,94811.23
2019-06-07T04:30:43.436Z,94819.55
2019-06-07T04:33:50.805Z,94813.41
2019-06-07T04:36:59.770Z,94809.11
2019-06-07T04:40:07.534Z,94808.64
2019-06-07T04:43:15.056Z,94805.20
2019-06-07T04:46:23.069Z,94802.19
2019-06-07T04:49:33.432Z,94791.88
2019-06-07T04:52:44.909Z,94794.17
2019-06-07T04:55:51.893Z,94799.86
2019-06-07T04:58:59.727Z,94805.08
2019-06-07T05:02:07.382Z,94806.38
2019-06-07T05:05:15.237Z,94800.78
2019-06-07T05:08:28.552Z,94803.00
2019-06-07T05:11:33.980Z,94794.89
2019-06-07T05:14:44.146Z,94785.19
2019-06-07T05:17:51.384Z,94786.18
2019-06-07T05:20:59.615Z,94776.97
2019-06-07T05:24:10.606Z,94767.34
2019-06-07T05:27:17.607Z,94769.61
2019-06-07T05:33:44.184Z,94774.92
2019-06-07T05:37:10.437Z,94767.89
2019-06-07T05:40:00.837Z,94770.05
2019-06-07T05:43:21.526Z,94780.89
2019-06-07T05:46:29.241Z,94779.27
2019-06-07T05:49:40.648Z,94778.69
2019-06-07T05:52:47.535Z,94778.95
2019-06-07T05:55:55.602Z,94785.72
2019-06-07T05:59:03.401Z,94780.91
2019-06-07T06:02:22.196Z,94774.83
2019-06-07T06:05:33.642Z,94766.42
2019-06-07T06:08:29.335Z,94770.02
2019-06-07T06:11:52.158Z,94753.16
2019-06-07T06:14:47.040Z,94757.41
2019-06-07T06:17:55.238Z,94757.29
2019-06-07T06:21:16.475Z,94762.95
2019-06-07T06:24:11.709Z,94763.00
2019-06-07T06:28:02.807Z,94765.53
2019-06-07T06:30:28.706Z,94761.52
2019-06-07T06:33:37.479Z,94762.67
2019-06-07T06:36:47.842Z,94745.41
2019-06-07T06:39:54.014Z,94748.38
2019-06-07T06:43:01.256Z,94744.92
2019-06-07T06:46:08.767Z,94746.64
2019-06-07T06:49:16.056Z,94752.65
2019-06-07T06:52:23.440Z,94744.50
2019-06-07T06:55:30.946Z,94746.80
2019-06-07T06:59:21.854Z,94749.62
2019-06-07T07:01:50.391Z,94743.38
2019-06-07T07:04:56.983Z,94736.05
2019-06-07T07:08:04.264Z,94729.68
2019-06-07T07:11:11.753Z,94725.71
2019-06-07T07:14:19.387Z,94723.70
2019-06-07T07:17:47.993Z,94724.45
2019-06-07T07:20:36.246Z,94718.11
2019-06-07T07:24:05.492Z,94719.52
2019-06-07T07:26:57.874Z,94707.78
2019-06-07T07:30:35.525Z,94708.41
2019-06-07T07:33:13.367Z,94706.20
2019-06-07T07:36:38.269Z,94701.38
2019-06-07T07:39:30.111Z,94700.06
2019-06-07T07:42:37.487Z,94691.44
2019-06-07T07:45:50.522Z,94684.36
2019-06-07T07:48:56.069Z,94684.66
2019-06-07T07:52:04.086Z,94696.67
2019-06-07T07:55:12.221Z,94683.12
2019-06-07T07:58:19.556Z,94677.22
2019-06-07T08:01:27.346Z,94682.26
2019-06-07T08:05:12.806Z,94669.60
2019-06-07T08:07:44.685Z,94680.76
2019-06-07T08:10:55.862Z,94673.80
2019-06-07T08:14:01.616Z,94667.56
2019-06-07T08:17:09.386Z,94667.05
2019-06-07T08:20:17.838Z,94664.47
2019-06-07T08:23:25.529Z,94656.92
2019-06-07T08:26:32.937Z,94651.26
2019-06-07T08:29:45.646Z,94649.80
2019-06-07T08:32:54.327Z,94645.63
2019-06-07T08:36:19.502Z,94648.58
2019-06-07T08:39:08.307Z,94643.86
2019-06-07T08:42:21.636Z,94640.86
2019-06-07T08:45:25.917Z,94634.92
2019-06-07T08:48:33.338Z,94633.23
2019-06-07T08:51:40.952Z,94630.23
2019-06-07T08:54:48.226Z,94636.30
2019-06-07T08:58:02.301Z,94632.93
2019-06-07T09:01:08.437Z,94627.92
2019-06-07T09:04:14.863Z,94628.20
2019-06-07T09:07:22.474Z,94630.91
2019-06-07T09:10:30.232Z,94632.15
2019-06-07T09:13:37.898Z,94626.02
2019-06-07T09:16:45.297Z,94621.55
2019-06-07T09:19:55.499Z,94625.33
2019-06-07T09:23:11.450Z,94623.58
2019-06-07T09:26:18.263Z,94616.17
2019-06-07T09:29:22.055Z,94615.16
2019-06-07T09:32:29.218Z,94612.45
2019-06-07T09:35:37.999Z,94601.09
2019-06-07T09:38:47.322Z,94603.69
2019-06-07T09:41:56.501Z,94600.19
2019-06-07T09:45:08.861Z,94598.60
2019-06-07T09:48:24.010Z,94590.95
2019-06-07T09:51:24.279Z,94590.03
2019-06-07T09:57:41.353Z,94581.04
2019-06-07T10:00:49.296Z,94571.83
2019-06-07T10:04:02.344Z,94559.63
2019-06-07T10:07:17.451Z,94561.91
2019-06-07T10:13:25.757Z,94547.69
2019-06-07T10:16:46.092Z,94545.23
2019-06-07T10:19:43.214Z,94542.80
2019-06-07T10:22:51.029Z,94536.39
2019-06-07T10:25:59.365Z,94534.34
2019-06-07T10:29:08.662Z,94535.79
2019-06-07T10:32:16.466Z,94538.80
2019-06-07T10:35:23.846Z,94531.19
2019-06-07T10:38:31.426Z,94525.13
2019-06-07T10:41:38.602Z,94531.23
2019-06-07T10:44:46.202Z,94527.02
2019-06-07T10:47:53.884Z,94530.84
2019-06-07T10:51:02.206Z,94525.05
2019-06-07T10:54:23.486Z,94524.18
2019-06-07T10:57:19.526Z,94524.92
2019-06-07T11:00:27.512Z,94522.23
2019-06-07T11:03:34.919Z,94508.67
2019-06-07T11:06:42.298Z,94509.16
2019-06-07T11:10:05.621Z,94510.88
2019-06-07T11:12:58.901Z,94513.64
2019-06-07T11:16:06.859Z,94502.15
2019-06-07T11:19:17.405Z,94501.88
2019-06-07T11:22:23.542Z,94514.12
2019-06-07T11:25:30.964Z,94502.08
2019-06-07T11:28:38.181Z,94508.89
2019-06-07T11:31:47.604Z,94504.61
2019-06-07T11:34:54.903Z,94500.36
2019-06-07T11:38:02.267Z,94504.41
2019-06-07T11:41:09.545Z,94510.05
2019-06-07T11:44:17.298Z,94502.12
2019-06-07T11:47:24.949Z,94505.45
2019-06-07T11:50:32.478Z,94499.28
2019-06-07T11:53:40.081Z,94496.98
2019-06-07T11:56:47.795Z,94499.42
2019-06-07T11:59:55.068Z,94492.91
2019-06-07T12:03:26.259Z,94490.65
2019-06-07T12:06:34.636Z,94489.29
2019-06-07T12:09:55.558Z,94484.59
2019-06-07T12:12:52.229Z,94484.72
2019-06-07T12:15:59.495Z,94472.61
2019-06-07T12:19:06.966Z,94477.28
2019-06-07T12:22:14.261Z,94463.62
2019-06-07T12:25:25.006Z,94468.06
2019-06-07T12:28:31.238Z,94460.93
2019-06-07T12:31:38.518Z,94453.65
2019-06-07T12:34:45.700Z,94446.30
2019-06-07T12:37:53.165Z,94449.63
2019-06-07T12:41:00.991Z,94445.34
2019-06-07T12:44:08.713Z,94447.59
2019-06-07T12:47:16.910Z,94436.89
2019-06-07T12:50:41.886Z,94433.81
2019-06-07T12:53:33.985Z,94432.69
2019-06-07T12:56:41.332Z,94431.37
2019-06-07T12:59:48.599Z,94421.08
2019-06-07T13:02:55.802Z,94412.91
2019-06-07T13:06:03.729Z,94414.19
2019-06-07T13:09:11.555Z,94414.57
2019-06-07T13:12:19.751Z,94416.59
2019-06-07T13:15:28.306Z,94403.12
2019-06-07T13:18:36.165Z,94411.30
2019-06-07T13:21:44.065Z,94411.98
2019-06-07T13:24:51.663Z,94406.55
2019-06-07T13:27:59.044Z,94405.77
2019-06-07T13:31:06.419Z,94402.34
2019-06-07T13:34:13.792Z,94389.11
2019-06-07T13:37:21.174Z,94395.31
2019-06-07T13:40:28.738Z,94386.48
2019-06-07T13:43:36.324Z,94380.34
2019-06-07T13:46:44.046Z,94381.52
2019-06-07T13:49:55.070Z,94378.20
2019-06-07T13:53:01.604Z,94378.95
2019-06-07T13:56:09.082Z,94381.19
2019-06-07T13:59:16.511Z,94376.14
2019-06-07T14:02:26.129Z,94373.89
2019-06-07T14:05:33.626Z,94372.38
2019-06-07T14:08:41.325Z,94369.44
2019-06-07T14:11:50.954Z,94362.31
2019-06-07T14:14:57.807Z,94353.83
2019-06-07T14:18:05.654Z,94349.39
2019-06-07T14:21:12.944Z,94346.80
2019-06-07T14:24:21.023Z,94342.20
2019-06-07T14:27:29.743Z,94340.92
2019-06-07T14:30:37.169Z,94332.51
2019-06-07T14:33:44.430Z,94332.95
2019-06-07T14:36:51.858Z,94336.72
2019-06-07T14:39:59.488Z,94332.20
2019-06-07T14:43:07.402Z,94326.30
2019-06-07T14:46:15.394Z,94326.17
2019-06-07T14:49:24.319Z,94326.90
2019-06-07T14:52:33.453Z,94322.97
2019-06-07T14:55:42.016Z,94313.11
2019-06-07T14:58:50.136Z,94311.75
2019-06-07T15:01:58.195Z,94319.80
2019-06-07T15:05:10.490Z,94319.96
2019-06-07T15:08:17.923Z,94314.35
2019-06-07T15:11:26.753Z,94306.02
2019-06-07T15:14:35.477Z,94308.74
2019-06-07T15:17:43.012Z,94310.58
2019-06-07T15:20:50.517Z,94308.48
2019-06-07T15:23:57.953Z,94301.53
2019-06-07T15:27:05.298Z,94297.94
2019-06-07T15:30:15.013Z,94300.34
2019-06-07T15:33:22.774Z,94293.03
2019-06-07T15:36:30.494Z,94287.74
2019-06-07T15:39:38.794Z,94289.70
2019-06-07T15:42:52.903Z,94288.75
2019-06-07T15:45:56.380Z,94284.06
2019-06-07T15:49:06.590Z,94279.05
2019-06-07T15:52:14.647Z,94279.05
2019-06-07T15:55:22.788Z,94278.42
2019-06-07T15:58:30.899Z,94283.43
2019-06-07T16:01:39.547Z,94277.22
2019-06-07T16:04:47.164Z,94277.72
2019-06-07T16:07:54.480Z,94281.48
2019-06-07T16:11:01.997Z,94278.58
2019-06-07T16:14:09.557Z,94287.80
2019-06-07T16:17:17.062Z,94283.55
2019-06-07T16:20:24.955Z,94273.85
2019-06-07T16:23:33.657Z,94275.66
2019-06-07T16:26:42.452Z,94270.63
2019-06-07T16:29:50.299Z,94273.38
2019-06-07T16:32:58.051Z,94271.23
2019-06-07T16:36:05.692Z,94266.89
2019-06-07T16:39:13.409Z,94270.25
2019-06-07T16:42:21.097Z,94275.41
2019-06-07T16:45:28.656Z,94273.70
2019-06-07T16:48:36.875Z,94262.30
2019-06-07T16:51:45.359Z,94267.66
2019-06-07T16:54:53.678Z,94256.70
2019-06-07T16:58:02.624Z,94265.06
2019-06-07T17:01:10.582Z,94278.27
2019-06-07T17:04:18.549Z,94271.09
2019-06-07T17:07:26.787Z,94271.73
2019-06-07T17:10:34.257Z,94266.69
2019-06-07T17:13:42.539Z,94257.56
2019-06-07T17:16:50.351Z,94262.64
2019-06-07T17:19:58.095Z,94269.70
2019-06-07T17:23:05.622Z,94271.42
2019-06-07T17:26:13.105Z,94268.00
2019-06-07T17:29:20.901Z,94260.77
2019-06-07T17:32:29.156Z,94263.91
2019-06-07T17:35:37.379Z,94271.83
2019-06-07T17:38:46.459Z,94275.81
2019-06-07T17:42:01.764Z,94271.28
2019-06-07T17:45:06.564Z,94274.50
2019-06-07T17:48:14.946Z,94278.08
2019-06-07T17:51:24.142Z,94271.57
2019-06-07T17:54:32.569Z,94281.75
2019-06-07T17:57:42.264Z,94294.48
2019-06-07T18:00:53.033Z,94293.73
2019-06-07T18:04:03.022Z,94301.47
2019-06-07T18:07:12.992Z,94301.80
2019-06-07T18:10:34.414Z,94306.08
2019-06-07T18:13:42.173Z,94309.03
2019-06-07T18:16:50.554Z,94314.50
2019-06-07T18:19:58.142Z,94322.11
2019-06-07T18:23:06.713Z,94325.36
2019-06-07T18:26:14.489Z,94319.69
2019-06-07T18:29:22.185Z,94326.30
2019-06-07T18:32:29.868Z,94334.86
2019-06-07T18:35:37.878Z,94333.97
2019-06-07T18:38:46.787Z,94338.28
2019-06-07T18:41:55.401Z,94339.07
2019-06-07T18:45:03.766Z,94348.95
2019-06-07T18:48:12.080Z,94339.27
2019-06-07T18:51:19.772Z,94341.87
2019-06-07T18:54:27.654Z,94347.62
2019-06-07T18:57:35.561Z,94349.64
2019-06-07T19:00:47.319Z,94358.53
2019-06-07T19:03:56.173Z,94360.23
2019-06-07T19:07:04.323Z,94371.06
2019-06-07T19:10:14.228Z,94377.82
2019-06-07T19:13:24.669Z,94373.53
2019-06-07T19:16:34.664Z,94384.12
2019-06-07T19:19:42.617Z,94385.62
2019-06-07T19:22:50.244Z,94395.17
2019-06-07T19:25:58.554Z,94400.58
2019-06-07T19:29:06.674Z,94406.16
2019-06-07T19:32:14.519Z,94414.72
2019-06-07T19:35:23.676Z,94419.73
2019-06-07T19:38:32.178Z,94424.53
2019-06-07T19:41:41.599Z,94442.28
2019-06-07T19:44:54.369Z,94456.25
2019-06-07T19:48:00.792Z,94448.09
2019-06-07T19:51:08.882Z,94463.91
2019-06-07T19:54:16.372Z,94480.77
2019-06-07T19:57:24.553Z,94492.08
2019-06-07T20:00:32.783Z,94503.98
2019-06-07T20:03:40.474Z,94508.45
2019-06-07T20:06:48.171Z,94511.97
2019-06-07T20:09:56.681Z,94523.91
2019-06-07T20:13:05.275Z,94535.75
2019-06-07T20:16:13.655Z,94543.15
2019-06-07T20:19:21.510Z,94562.78
2019-06-07T20:22:49.644Z,94576.48
2019-06-07T20:25:57.284Z,94579.65
2019-06-07T20:29:05.692Z,94583.14
2019-06-07T20:32:13.198Z,94592.63
2019-06-07T20:35:20.630Z,94603.02
2019-06-07T20:38:29.544Z,94609.27
2019-06-07T20:41:37.180Z,94627.77
2019-06-07T20:44:44.631Z,94634.45
2019-06-07T20:47:52.432Z,94643.89
2019-06-07T20:51:01.148Z,94658.35
2019-06-07T20:54:09.963Z,94663.41
2019-06-07T20:57:17.528Z,94672.34
2019-06-07T21:00:25.210Z,94681.20
2019-06-07T21:03:32.632Z,94684.05
2019-06-07T21:06:40.081Z,94689.69
2019-06-07T21:09:47.875Z,94706.63
2019-06-07T21:12:56.027Z,94715.36
2019-06-07T21:16:04.302Z,94728.28
2019-06-07T21:19:11.915Z,94734.63
2019-06-07T21:22:19.610Z,94752.88
2019-06-07T21:25:27.280Z,94770.00
2019-06-07T21:28:35.215Z,94802.50
2019-06-07T21:31:42.589Z,94820.83
2019-06-07T21:34:50.401Z,94855.16
2019-06-07T21:37:58.048Z,94870.17
2019-06-07T21:41:06.177Z,94872.78
2019-06-07T21:44:14.009Z,94914.76
2019-06-07T21:47:21.497Z,94956.50
2019-06-07T21:50:29.202Z,94976.22
2019-06-07T21:53:36.932Z,94996.39
2019-06-07T21:56:44.697Z,95023.63
2019-06-07T21:59:52.324Z,95047.86
2019-06-07T22:02:59.692Z,95062.98
2019-06-07T22:06:07.629Z,95080.66
2019-06-07T22:09:15.169Z,95088.96
2019-06-07T22:12:22.333Z,95110.06
2019-06-07T22:15:35.354Z,95114.53
2019-06-07T22:18:39.739Z,95130.27
2019-06-07T22:22:01.789Z,95129.38
2019-06-07T22:24:55.986Z,95123.28
2019-06-07T22:28:03.566Z,95131.97
2019-06-07T22:31:10.933Z,95141.66
2019-06-07T22:34:19.189Z,95144.70
2019-06-07T22:37:26.971Z,95149.06
2019-06-07T22:40:34.506Z,95154.84
2019-06-07T22:43:42.167Z,95163.28
2019-06-07T22:46:49.680Z,95175.66
2019-06-07T22:49:56.863Z,95182.78
2019-06-07T22:53:04.345Z,95176.85
2019-06-07T22:56:38.280Z,95186.16
2019-06-07T22:59:46.094Z,95193.30
2019-06-07T23:02:53.495Z,95206.80
2019-06-07T23:06:00.973Z,95206.02
2019-06-07T23:09:08.948Z,95202.08
2019-06-07T23:12:17.532Z,95196.52
2019-06-07T23:15:25.394Z,95205.55
2019-06-07T23:18:33.040Z,95200.77
2019-06-07T23:21:40.482Z,95203.22
2019-06-07T23:24:47.869Z,95195.54
2019-06-07T23:27:55.416Z,95200.44
2019-06-07T23:31:03.486Z,95200.55
2019-06-07T23:34:10.973Z,95207.70
2019-06-07T23:37:19.136Z,95218.43
2019-06-07T23:40:26.896Z,95220.30
2019-06-07T23:43:34.298Z,95225.41
2019-06-07T23:46:41.888Z,95230.03
2019-06-07T23:49:49.183Z,95235.92
2019-06-07T23:52:56.678Z,95244.87
2019-06-07T23:56:04.216Z,95277.84
2019-06-07T23:59:11.991Z,95289.16
